Walkerville, Illinois
Current Conditions -  °F | °C
As of 9:50 AM on Friday 24 Oct 2014 (Local Time) from KPPQ Reporting Station
Moderate Fog Moderate Fog  
Wind Chill: 57°   Ceiling: 200
Heat Index: 57°   Visibility: 0.5mi
Dew Point: 55°   Wind: 3mph
Humidity: 94%   Direction: 230°SW
Pressure: 30.12"   Gusts: NA
Location:  39.403°N, 90.4171°W
Report Text: KPPQ 241450Z AUTO 23003KT 1/2SM FG OVC002 14/13 A3012 RMK AO2 T01370128
Loading
Personal Weather Stations






























Interactive Weather Map
Tropical Storm Tracking
New forecast layout! Learn more

10-Day Weather Forecast

Advertisements
Track Severe Weather on mobile